• Join FlightAware (Why Join?)
  • Login
  • US Flag 
06:58PM EST


 

Airport Tracker/Info


-or-


 

Live Flight TrackerFlight Track Log ✈ EJA332 ✈ 25-Apr-2014 ✈ KTTN - KBOS

Flight Track Log - Related Links

Times and Time Zones

All times are in EDT time to prevent confusion due to time zone crossing. See the EJA332 flight status page for this flight to view local times or setup timezone preferences in your user account.

Time Position Orientation Groundspeed Altitude Reporting Facility
EDT Latitude Longitude Course Direction KTS MPH feet Rate Location/Type
02:26PM 40.2039 -74.5386 92° East 284 327 5,000  Level FlightAware ADS-B (KPHL)
02:29PM 40.1403 -74.2897 110° East 281 323 6,000 579 Climbing New York Center
02:31PM 40.0489 -73.9968 113° Southeast  Level FlightAware Approximate
02:32PM 40.0055 -73.8777 123° Southeast  Level FlightAware Approximate
02:33PM 39.9640 -73.7574 110° East  Level FlightAware Approximate
02:34PM 39.9562 -73.7118 112° Southeast 367 422 9,900  Level FlightAware ADS-B (KPHL)
02:38PM 40.1807 -73.3250 46° Northeast 361 415 11,400 834 Climbing FlightAware ADS-B (KSNC)
02:39PM 40.2626 -73.2150 46° Northeast 401 461 14,000 2,202 Climbing FlightAware ADS-B (KSNC)
02:40PM 40.3170 -73.1416 46° Northeast 416 479 15,400 2,197 Climbing FlightAware ADS-B (KSNC)
02:40PM 40.3618 -73.0810 46° Northeast 424 488 16,600 1,023 Climbing FlightAware ADS-B (KSNC)
02:41PM 40.4352 -72.9902 41° Northeast 418 481 16,900 207 Climbing FlightAware ADS-B (KSNC)
02:42PM 40.4827 -72.9353 42° Northeast 418 481 16,900  Level FlightAware ADS-B (KSNC)
02:43PM 40.5379 -72.8702 42° Northeast 419 482 16,900  Level FlightAware ADS-B (KSNC)
02:43PM 40.5869 -72.8121 42° Northeast 419 482 16,900  Level FlightAware ADS-B (KSNC)
02:44PM 40.6477 -72.7399 42° Northeast 420 483 16,900  Level FlightAware ADS-B (KSNC)
02:45PM 40.7165 -72.6581 42° Northeast 421 484 16,900  Level FlightAware ADS-B (KSNC)
02:45PM 40.7630 -72.6025 42° Northeast 421 484 16,900  Level FlightAware ADS-B (KSNC)
02:46PM 40.8163 -72.5388 42° Northeast 421 484 16,900  Level FlightAware ADS-B (KSNC)
02:46PM 40.8638 -72.4819 42° Northeast 421 484 16,900 79 Level FlightAware ADS-B (KSNC)
02:47PM 40.9270 -72.4060 42° Northeast 420 483 17,000 83 Climbing FlightAware ADS-B (KSNC)
02:48PM 40.9694 -72.3548 42° Northeast 420 483 17,000  Level FlightAware ADS-B (KSNC)
02:48PM 41.0134 -72.3018 43° Northeast 420 483 17,000  Level FlightAware ADS-B (KSNC)
02:49PM 41.0801 -72.2211 43° Northeast 420 483 17,000  Level FlightAware ADS-B (KSNC)
02:49PM 41.1385 -72.1503 43° Northeast 420 483 17,000  Level FlightAware ADS-B (KSNC)
02:50PM 41.1996 -72.0760 43° Northeast 420 483 17,000  Level FlightAware ADS-B (KSNC)
02:51PM 41.2262 -72.0435 43° Northeast 420 483 17,000  Level FlightAware ADS-B (SBBR / BSB)
02:52PM 41.3152 -71.9349 43° Northeast 419 482 17,000  Level FlightAware ADS-B (KSNC)
02:52PM 41.3566 -71.8841 43° Northeast 415 478 17,000  Level FlightAware ADS-B (SBBR / BSB)
02:53PM 41.3777 -71.8583 43° Northeast 414 476 17,000 -62 Level FlightAware ADS-B (KSNC)
02:54PM 41.4848 -71.7265 43° Northeast 408 470 16,900 -857 Descending FlightAware ADS-B (KSNC)
02:54PM 41.5337 -71.6662 43° Northeast 390 449 15,800 -1,969 Descending FlightAware ADS-B (SBBR / BSB)
02:55PM 41.5769 -71.6127 43° Northeast 367 422 14,800 -1,853 Descending FlightAware ADS-B (SBBR / BSB)
02:55PM 41.6160 -71.5643 43° Northeast 354 407 13,700 -1,818 Descending FlightAware ADS-B (SBBR / BSB)
02:56PM 41.6560 -71.5147 43° Northeast 346 398 12,800 -1,869 Descending FlightAware ADS-B (SBBR / BSB)
02:56PM 41.6900 -71.4722 43° Northeast 328 377 11,800 -1,645 Descending FlightAware ADS-B (SBBR / BSB)
02:57PM 41.7248 -71.4263 52° Northeast 317 365 11,100 -1,263 Descending FlightAware ADS-B (SBBR / BSB)
02:57PM 41.7301 -71.4159 58° Northeast 315 362 11,000 -136 Descending FlightAware ADS-B (KASH)
02:58PM 41.7624 -71.3605 49° Northeast 310 357 11,000  Level FlightAware ADS-B (SBBR / BSB)
02:58PM 41.7826 -71.3298 50° Northeast 305 351 11,000  Level FlightAware ADS-B (KASH)
02:58PM 41.8098 -71.2885 49° Northeast 311 358 11,000  Level FlightAware ADS-B (SBBR / BSB)
02:58PM 41.8147 -71.2810 50° Northeast 306 352 11,000  Level FlightAware ADS-B (KASH)
02:59PM 41.8494 -71.2461 24° Northeast 304 350 11,000  Level FlightAware ADS-B (SBBR / BSB)
02:59PM 41.8908 -71.2312 14° North 300 345 11,000 -316 Level FlightAware ADS-B (SBBR / BSB)
03:00PM 41.9014 -71.2276 14° North 285 328 10,800 -2,769 Descending FlightAware ADS-B (KASH)
03:00PM 41.9074 -71.2254 16° North 283 326 10,400 -1,455 Descending FlightAware ADS-B (KOWD)
03:00PM 41.9417 -71.2095 22° Northeast 262 302 10,000 -1,277 Descending FlightAware ADS-B (KASH)
03:00PM 41.9627 -71.1984 21° North 259 298 9,400 -1,862 Descending FlightAware ADS-B (KOWD)
03:01PM 41.9734 -71.1930 20° North 251 289 9,100 -1,600 Descending FlightAware ADS-B (SBBR / BSB)
03:01PM 41.9627 -71.1984 19° North 245 282 8,600 -1,857 Descending FlightAware ADS-B (KOWD)
03:01PM 42.0182 -71.1721 19° North 247 284 7,800 -2,108 Descending FlightAware ADS-B (KOWD)
03:02PM 42.0355 -71.1638 21° North 238 274 7,300 -2,516 Descending FlightAware ADS-B (KASH)
03:02PM 42.0514 -71.1560 20° North 247 284 6,500 -2,400 Descending FlightAware ADS-B (SBBR / BSB)
03:02PM 42.0726 -71.1457 20° North 245 282 5,900 -2,000 Descending FlightAware ADS-B (KOWD)
03:03PM 42.0947 -71.1353 19° North 244 281 5,200 -2,108 Descending FlightAware ADS-B (KOWD)
03:03PM 42.1127 -71.1291 13° North 242 278 4,600 -1,946 Descending FlightAware ADS-B (SBBR / BSB)
03:03PM 42.1330 -71.1231 13° North 243 280 4,000 -1,875 Descending FlightAware ADS-B (SBBR / BSB)
03:03PM 42.1474 -71.1184 17° North 241 277 3,600 -1,742 Descending FlightAware ADS-B (KOWD)
03:04PM 42.1676 -71.1086 21° North 238 274 3,100 -878 Descending FlightAware ADS-B (KOWD)
03:04PM 42.1897 -71.0970 22° Northeast 224 258 3,000 -143 Descending FlightAware ADS-B (SBBR / BSB)
03:04PM 42.2089 -71.0867 22° Northeast 220 253 3,000 -450 Level FlightAware ADS-B (KOWD)
03:05PM 42.2240 -71.0790 20° North 212 244 2,700 -698 Descending FlightAware ADS-B (KOWD)
03:05PM 42.2480 -71.0678 19° North 202 232 2,500 -698 Descending FlightAware ADS-B (SBBR / BSB)
03:05PM 42.2534 -71.0653 18° North 181 208 2,200 -973 Descending FlightAware ADS-B (SBBR / BSB)
03:06PM 42.2744 -71.0552 20° North 180 207 1,900 -1,231 Descending FlightAware ADS-B (SBBR / BSB)
03:06PM 42.2952 -71.0446 20° North 172 198 1,400 -1,231 Descending FlightAware ADS-B (SBBR / BSB)
03:06PM 42.3076 -71.0385 19° North 162 186 1,100 -612 Descending FlightAware ADS-B (SBBR / BSB)
03:07PM 42.3272 -71.0292 19° North 174 200 900 -638 Descending Boston Center
03:08PM 42.3597 -71.0125 21° North 144 166 100 -774 Descending Boston Center
03:10PM 42.3630 -71.0064 North  Level Estimated